Time;durP1;ratioP1;P1;durP2;ratioP2;P2;SDS_P1;SDS_P2;PMS_P1;PMS_P2;Temp;Humidity;BMP_temperature;BMP_pressure;BME280_temperature;BME280_humidity;BME280_pressure;Samples;Min_cycle;Max_cycle;Signal;HPM_P1;HPM_P2
2021/07/24 00:02:09;;;;;;;0.20;0.20;;;;;;;;;;10331497;28;20039;-29
2021/07/24 00:07:13;;;;;;;0.25;0.25;;;;;;;;;;10326417;28;20053;-29
2021/07/24 00:12:16;;;;;;;0.28;0.13;;;;;;;;;;10323183;28;20047;-28
2021/07/24 00:17:18;;;;;;;0.55;0.28;;;;;;;;;;10324727;28;20046;-26
2021/07/24 00:22:23;;;;;;;0.25;0.20;;;;;;;;;;10322135;28;21130;-26
2021/07/24 00:27:25;;;;;;;0.10;0.10;;;;;;;;;;10321661;28;20050;-26
2021/07/24 00:32:29;;;;;;;0.47;0.20;;;;;;;;;;10318909;28;20073;-26
2021/07/24 00:37:34;;;;;;;0.10;0.10;;;;;;;;;;10321213;28;20049;-25
2021/07/24 00:42:37;;;;;;;0.20;0.20;;;;;;;;;;10352308;28;20053;-26
2021/07/24 00:47:41;;;;;;;0.20;0.20;;;;;;;;;;10342569;28;20050;-26
2021/07/24 00:53:10;;;;;;;0.20;0.10;;;;;;;;;;10347614;28;20045;-25
2021/07/24 00:58:31;;;;;;;0.10;0.10;;;;;;;;;;10353969;28;20046;-26
2021/07/24 01:03:34;;;;;;;0.20;0.20;;;;;;;;;;10344740;28;20053;-26
2021/07/24 01:08:38;;;;;;;0.10;0.10;;;;;;;;;;10337313;28;20464;-27
2021/07/24 01:13:42;;;;;;;0.32;0.10;;;;;;;;;;10338831;28;20043;-27
2021/07/24 01:18:45;;;;;;;0.10;0.10;;;;;;;;;;10335575;28;20057;-27
2021/07/24 01:23:56;;;;;;;0.10;0.10;;;;;;;;;;10328986;28;20249;-27
2021/07/24 01:28:59;;;;;;;0.10;0.10;;;;;;;;;;10334522;28;20045;-27
2021/07/24 01:34:03;;;;;;;0.20;0.20;;;;;;;;;;10332887;28;20061;-27
2021/07/24 01:39:08;;;;;;;0.20;0.20;;;;;;;;;;10327472;28;20054;-26
2021/07/24 01:44:13;;;;;;;0.13;0.13;;;;;;;;;;10325810;28;20046;-27
2021/07/24 01:54:37;;;;;;;0.10;0.10;;;;;;;;;;10320538;28;20055;-28
2021/07/24 01:59:43;;;;;;;0.22;0.22;;;;;;;;;;10318845;28;20463;-27
2021/07/24 02:04:49;;;;;;;0.38;0.20;;;;;;;;;;10316459;28;20050;-27
2021/07/24 02:09:54;;;;;;;0.10;0.10;;;;;;;;;;10314352;28;20502;-28
2021/07/24 02:15:15;;;;;;;0.20;0.20;;;;;;;;;;10314851;28;20058;-27
2021/07/24 02:20:24;;;;;;;0.20;0.20;;;;;;;;;;10327274;28;20128;-28
2021/07/24 02:25:29;;;;;;;0.20;0.20;;;;;;;;;;10335285;28;20054;-26
2021/07/24 02:30:31;;;;;;;0.10;0.10;;;;;;;;;;10342163;28;20050;-28
2021/07/24 02:35:34;;;;;;;0.15;0.15;;;;;;;;;;10341593;28;20054;-27
2021/07/24 02:40:58;;;;;;;0.20;0.20;;;;;;;;;;10346772;28;20042;-26
2021/07/24 02:46:01;;;;;;;0.20;0.20;;;;;;;;;;10337198;28;20062;-27
2021/07/24 02:51:05;;;;;;;0.63;0.20;;;;;;;;;;10346566;28;20057;-26
2021/07/24 02:56:09;;;;;;;0.15;0.10;;;;;;;;;;10343652;28;20054;-26
2021/07/24 03:01:14;;;;;;;0.15;0.15;;;;;;;;;;10340164;28;20038;-27
2021/07/24 03:06:17;;;;;;;1.20;0.22;;;;;;;;;;10335878;28;20046;-26
2021/07/24 03:11:21;;;;;;;0.10;0.10;;;;;;;;;;10341332;28;20049;-26
2021/07/24 03:16:24;;;;;;;0.20;0.20;;;;;;;;;;10331539;28;20042;-26
2021/07/24 03:21:27;;;;;;;0.20;0.20;;;;;;;;;;10329379;28;20511;-26
2021/07/24 03:26:31;;;;;;;0.20;0.20;;;;;;;;;;10320065;28;20414;-26
2021/07/24 03:31:34;;;;;;;0.40;0.22;;;;;;;;;;10317084;28;20050;-26
2021/07/24 03:36:36;;;;;;;0.25;0.22;;;;;;;;;;10316673;28;20043;-26
2021/07/24 03:41:40;;;;;;;0.40;0.10;;;;;;;;;;10318796;28;20046;-26
2021/07/24 03:46:43;;;;;;;0.30;0.30;;;;;;;;;;10317658;28;20046;-26
2021/07/24 03:51:46;;;;;;;0.20;0.20;;;;;;;;;;10324691;28;20101;-26
2021/07/24 03:56:50;;;;;;;0.45;0.20;;;;;;;;;;10320518;28;20052;-27
2021/07/24 04:01:54;;;;;;;0.10;0.10;;;;;;;;;;10321877;28;20053;-27
2021/07/24 04:06:57;;;;;;;0.25;0.20;;;;;;;;;;10317903;28;20052;-27
2021/07/24 04:12:02;;;;;;;0.43;0.20;;;;;;;;;;10315549;28;20076;-27
2021/07/24 04:17:05;;;;;;;0.25;0.25;;;;;;;;;;10322233;28;20073;-28
2021/07/24 04:22:07;;;;;;;0.17;0.17;;;;;;;;;;10317304;28;20038;-27
2021/07/24 04:27:12;;;;;;;0.20;0.20;;;;;;;;;;10319664;28;20046;-26
2021/07/24 04:32:15;;;;;;;0.50;0.30;;;;;;;;;;10342281;28;20082;-25
2021/07/24 04:37:18;;;;;;;0.20;0.20;;;;;;;;;;10336337;28;20069;-25
2021/07/24 04:42:23;;;;;;;0.70;0.30;;;;;;;;;;10332410;28;20065;-26
2021/07/24 04:47:26;;;;;;;0.57;0.20;;;;;;;;;;10334390;28;20049;-26
2021/07/24 04:52:30;;;;;;;0.20;0.20;;;;;;;;;;10332026;28;20064;-26
2021/07/24 04:57:35;;;;;;;0.57;0.20;;;;;;;;;;10326260;28;20042;-27
2021/07/24 05:02:38;;;;;;;0.28;0.22;;;;;;;;;;10330602;28;20052;-26
2021/07/24 05:07:41;;;;;;;0.22;0.22;;;;;;;;;;10327941;28;20049;-27
2021/07/24 05:12:45;;;;;;;1.40;0.20;;;;;;;;;;10321967;28;20046;-27
2021/07/24 05:17:48;;;;;;;0.30;0.20;;;;;;;;;;10322941;28;20046;-26
2021/07/24 05:22:51;;;;;;;0.30;0.30;;;;;;;;;;10319595;28;20048;-26
2021/07/24 05:27:55;;;;;;;0.10;0.10;;;;;;;;;;10319561;28;20466;-27
2021/07/24 05:32:58;;;;;;;0.50;0.30;;;;;;;;;;10317099;28;20065;-26
2021/07/24 05:38:01;;;;;;;1.20;0.32;;;;;;;;;;10352693;28;20144;-27
2021/07/24 05:43:05;;;;;;;0.20;0.20;;;;;;;;;;10347034;28;20038;-26
2021/07/24 05:48:07;;;;;;;0.40;0.25;;;;;;;;;;10348434;28;20479;-26
2021/07/24 05:53:10;;;;;;;0.10;0.10;;;;;;;;;;10339493;28;20069;-26
2021/07/24 05:58:14;;;;;;;0.22;0.20;;;;;;;;;;10335430;28;20046;-26
2021/07/24 06:03:17;;;;;;;0.20;0.20;;;;;;;;;;10353513;28;20048;-26
2021/07/24 06:08:20;;;;;;;0.40;0.20;;;;;;;;;;10338069;28;20035;-28
2021/07/24 06:13:24;;;;;;;0.20;0.20;;;;;;;;;;10334447;28;20046;-26
2021/07/24 06:18:27;;;;;;;0.20;0.20;;;;;;;;;;10337438;28;20503;-27
2021/07/24 06:23:29;;;;;;;0.30;0.20;;;;;;;;;;10329977;28;20038;-26
2021/07/24 06:28:34;;;;;;;0.40;0.30;;;;;;;;;;10328694;28;20057;-26
2021/07/24 06:33:37;;;;;;;0.10;0.10;;;;;;;;;;10328579;28;20050;-28
2021/07/24 06:38:40;;;;;;;0.15;0.15;;;;;;;;;;10326327;28;20056;-26
2021/07/24 06:43:44;;;;;;;0.10;0.10;;;;;;;;;;10326694;28;20046;-27
2021/07/24 06:48:47;;;;;;;0.20;0.20;;;;;;;;;;10323419;28;20046;-26
2021/07/24 06:53:49;;;;;;;0.20;0.20;;;;;;;;;;10321699;28;20045;-27
2021/07/24 06:58:53;;;;;;;0.17;0.17;;;;;;;;;;10314208;28;20058;-27
2021/07/24 07:03:56;;;;;;;0.20;0.20;;;;;;;;;;10315598;28;20664;-27
2021/07/24 07:08:58;;;;;;;0.20;0.20;;;;;;;;;;10313734;28;20050;-26
2021/07/24 07:14:04;;;;;;;0.15;0.15;;;;;;;;;;10313594;28;20038;-27
2021/07/24 07:19:07;;;;;;;0.10;0.10;;;;;;;;;;10317998;28;20149;-26
2021/07/24 07:24:10;;;;;;;0.20;0.20;;;;;;;;;;10342643;28;20411;-25
2021/07/24 07:29:14;;;;;;;0.17;0.10;;;;;;;;;;10327074;28;20137;-26
2021/07/24 07:34:17;;;;;;;0.40;0.20;;;;;;;;;;10321193;28;20043;-26
2021/07/24 07:39:20;;;;;;;0.10;0.10;;;;;;;;;;10318992;28;20766;-27
2021/07/24 07:44:25;;;;;;;0.10;0.10;;;;;;;;;;10316317;28;20721;-26
2021/07/24 07:49:28;;;;;;;0.28;0.20;;;;;;;;;;10348961;28;20475;-26
2021/07/24 07:54:33;;;;;;;0.20;0.20;;;;;;;;;;10348600;28;20045;-27
2021/07/24 07:59:40;;;;;;;0.45;0.10;;;;;;;;;;10349243;28;20077;-26
2021/07/24 08:04:42;;;;;;;0.17;0.17;;;;;;;;;;10350783;28;20035;-26
2021/07/24 08:09:45;;;;;;;0.10;0.10;;;;;;;;;;10343075;28;20049;-26
2021/07/24 08:14:50;;;;;;;0.25;0.10;;;;;;;;;;10345328;28;20110;-26
2021/07/24 08:19:53;;;;;;;0.20;0.20;;;;;;;;;;10347026;28;20726;-29
2021/07/24 08:24:55;;;;;;;1.10;0.10;;;;;;;;;;10347617;28;20048;-26
2021/07/24 08:29:59;;;;;;;0.57;0.10;;;;;;;;;;10342209;28;20073;-26
2021/07/24 08:35:03;;;;;;;1.23;0.20;;;;;;;;;;10344440;28;20053;-26
2021/07/24 08:40:06;;;;;;;0.28;0.10;;;;;;;;;;10339671;28;20053;-27
2021/07/24 08:45:13;;;;;;;0.10;0.10;;;;;;;;;;10333760;28;20050;-26
2021/07/24 08:50:17;;;;;;;0.50;0.10;;;;;;;;;;10350496;28;20389;-26
2021/07/24 08:55:21;;;;;;;0.10;0.10;;;;;;;;;;10339884;28;20061;-27
2021/07/24 09:00:27;;;;;;;0.20;0.10;;;;;;;;;;10338156;28;20046;-27
2021/07/24 09:05:30;;;;;;;0.30;0.20;;;;;;;;;;10339500;28;20077;-27
2021/07/24 09:10:33;;;;;;;0.10;0.10;;;;;;;;;;10346720;28;20500;-26
2021/07/24 09:15:37;;;;;;;0.10;0.10;;;;;;;;;;10343045;28;20065;-26
2021/07/24 09:20:41;;;;;;;0.47;0.10;;;;;;;;;;10346798;28;20046;-26
2021/07/24 09:25:44;;;;;;;0.32;0.10;;;;;;;;;;10348254;28;20054;-27
2021/07/24 09:30:48;;;;;;;0.10;0.10;;;;;;;;;;10344701;28;20066;-27
2021/07/24 09:35:52;;;;;;;0.30;0.10;;;;;;;;;;10347730;28;20053;-27
2021/07/24 09:40:55;;;;;;;0.10;0.10;;;;;;;;;;10342469;28;20064;-26
2021/07/24 09:46:15;;;;;;;0.10;0.10;;;;;;;;;;10340726;28;20460;-26
2021/07/24 09:51:31;;;;;;;0.10;0.10;;;;;;;;;;10346125;28;20046;-26
2021/07/24 09:56:38;;;;;;;0.10;0.10;;;;;;;;;;10336166;28;20042;-27
2021/07/24 10:01:42;;;;;;;0.15;0.10;;;;;;;;;;10342150;28;20042;-26
2021/07/24 10:06:46;;;;;;;0.10;0.10;;;;;;;;;;10333673;28;20486;-27
2021/07/24 10:11:48;;;;;;;0.45;0.10;;;;;;;;;;10341246;28;20042;-26
2021/07/24 10:16:53;;;;;;;0.00;0.00;;;;;;;;;;10350587;28;20046;-27
2021/07/24 10:21:57;;;;;;;1.00;0.10;;;;;;;;;;10340117;28;20057;-26
2021/07/24 10:27:03;;;;;;;0.28;0.20;;;;;;;;;;10365909;28;20053;-26
2021/07/24 10:32:08;;;;;;;0.30;0.10;;;;;;;;;;10342095;28;20037;-26
2021/07/24 10:37:30;;;;;;;0.10;0.10;;;;;;;;;;10336660;28;20049;-26
2021/07/24 10:42:37;;;;;;;0.20;0.10;;;;;;;;;;10342719;28;20046;-26
2021/07/24 10:48:01;;;;;;;0.20;0.10;;;;;;;;;;10336713;28;20054;-26
2021/07/24 10:53:08;;;;;;;0.20;0.08;;;;;;;;;;10344417;28;20045;-27
2021/07/24 10:58:10;;;;;;;0.10;0.10;;;;;;;;;;10334883;28;20101;-27
2021/07/24 11:03:28;;;;;;;0.10;0.00;;;;;;;;;;10353213;28;20042;-26
2021/07/24 11:08:52;;;;;;;0.10;0.10;;;;;;;;;;10345801;28;20521;-27
2021/07/24 11:13:56;;;;;;;0.10;0.10;;;;;;;;;;10332575;28;20049;-26
2021/07/24 11:19:13;;;;;;;0.08;0.00;;;;;;;;;;10349337;28;20038;-29
2021/07/24 11:24:16;;;;;;;0.45;0.03;;;;;;;;;;10342288;28;20042;-26
2021/07/24 11:29:23;;;;;;;0.03;0.03;;;;;;;;;;10349641;28;20041;-26
2021/07/24 11:34:27;;;;;;;0.03;0.03;;;;;;;;;;10343706;28;20061;-27
2021/07/24 11:39:30;;;;;;;0.10;0.00;;;;;;;;;;10351441;28;20613;-26
2021/07/24 11:44:34;;;;;;;0.00;0.00;;;;;;;;;;10360213;28;20081;-26
2021/07/24 11:49:40;;;;;;;0.00;0.00;;;;;;;;;;10353383;28;20058;-27
2021/07/24 11:54:50;;;;;;;0.00;0.00;;;;;;;;;;10343460;28;20047;-28
2021/07/24 11:59:54;;;;;;;0.00;0.00;;;;;;;;;;10349643;28;20054;-26
2021/07/24 12:04:57;;;;;;;0.03;0.00;;;;;;;;;;10345047;28;20484;-26
2021/07/24 12:10:00;;;;;;;0.20;0.00;;;;;;;;;;10351302;28;20049;-26
2021/07/24 12:15:06;;;;;;;0.10;0.00;;;;;;;;;;10341737;28;20042;-26
2021/07/24 12:20:14;;;;;;;0.10;0.10;;;;;;;;;;10342488;28;20121;-27
2021/07/24 12:25:19;;;;;;;0.10;0.00;;;;;;;;;;10341471;28;20085;-26
2021/07/24 12:30:27;;;;;;;0.08;0.00;;;;;;;;;;10345723;28;20061;-26
2021/07/24 12:35:30;;;;;;;0.10;0.00;;;;;;;;;;10353359;28;20166;-26
2021/07/24 12:40:33;;;;;;;0.00;0.00;;;;;;;;;;10357197;28;20486;-27
2021/07/24 12:45:37;;;;;;;0.00;0.00;;;;;;;;;;10340285;28;20034;-27
2021/07/24 12:50:39;;;;;;;0.10;0.00;;;;;;;;;;10342149;28;20053;-28
2021/07/24 12:55:42;;;;;;;0.10;0.10;;;;;;;;;;10343574;28;20050;-27
2021/07/24 13:00:46;;;;;;;0.52;0.00;;;;;;;;;;10342693;28;20439;-27
2021/07/24 13:05:50;;;;;;;0.00;0.00;;;;;;;;;;10342579;28;20042;-26
2021/07/24 13:10:53;;;;;;;0.10;0.00;;;;;;;;;;10344431;28;20145;-27
2021/07/24 13:15:57;;;;;;;0.17;0.00;;;;;;;;;;10340908;28;20403;-27
2021/07/24 13:20:59;;;;;;;0.20;0.08;;;;;;;;;;10337905;28;20058;-28
2021/07/24 13:28:14;;;;;;;0.20;0.00;;;;;;;;;;10337688;28;20045;-27
2021/07/24 13:31:33;;;;;;;0.35;0.00;;;;;;;;;;10338392;28;20060;-26
2021/07/24 13:36:36;;;;;;;0.00;0.00;;;;;;;;;;10336710;28;20042;-26
2021/07/24 13:41:39;;;;;;;0.00;0.00;;;;;;;;;;10339625;28;20125;-27
2021/07/24 13:46:43;;;;;;;0.15;0.00;;;;;;;;;;10339360;28;20077;-28
2021/07/24 13:51:46;;;;;;;0.10;0.10;;;;;;;;;;10343625;28;20049;-27
2021/07/24 13:56:49;;;;;;;0.00;0.00;;;;;;;;;;10344700;28;20048;-26
2021/07/24 14:01:53;;;;;;;0.00;0.00;;;;;;;;;;10345424;28;20056;-26
2021/07/24 14:06:56;;;;;;;0.00;0.00;;;;;;;;;;10343779;28;20038;-26
2021/07/24 14:11:58;;;;;;;0.43;0.00;;;;;;;;;;10340727;28;20060;-27
2021/07/24 14:17:02;;;;;;;0.00;0.00;;;;;;;;;;10342239;28;20035;-27
2021/07/24 14:22:05;;;;;;;0.00;0.00;;;;;;;;;;10343459;28;20038;-27
2021/07/24 14:27:08;;;;;;;0.47;0.00;;;;;;;;;;10351060;28;20042;-27
2021/07/24 14:32:12;;;;;;;0.00;0.00;;;;;;;;;;10347080;28;20120;-23
2021/07/24 14:37:14;;;;;;;0.00;0.00;;;;;;;;;;10351853;28;20038;-23
2021/07/24 14:42:17;;;;;;;0.00;0.00;;;;;;;;;;10345174;28;20076;-24
2021/07/24 14:47:22;;;;;;;0.10;0.00;;;;;;;;;;10348188;28;20038;-23
2021/07/24 14:52:25;;;;;;;0.20;0.03;;;;;;;;;;10360242;28;20061;-23
2021/07/24 14:57:28;;;;;;;0.00;0.00;;;;;;;;;;10351744;28;20037;-23
2021/07/24 15:02:32;;;;;;;0.00;0.00;;;;;;;;;;10345827;28;20065;-24
2021/07/24 15:07:35;;;;;;;0.30;0.00;;;;;;;;;;10342478;28;20043;-24
2021/07/24 15:12:38;;;;;;;0.00;0.00;;;;;;;;;;10348465;28;20050;-23
2021/07/24 15:17:42;;;;;;;0.30;0.00;;;;;;;;;;10346145;28;20165;-23
2021/07/24 15:22:46;;;;;;;0.20;0.00;;;;;;;;;;10334694;28;20042;-23
2021/07/24 15:27:49;;;;;;;0.20;0.00;;;;;;;;;;10338921;28;20034;-23
2021/07/24 15:32:53;;;;;;;0.00;0.00;;;;;;;;;;10348495;28;20067;-23
2021/07/24 15:37:55;;;;;;;0.20;0.00;;;;;;;;;;10341005;28;20050;-23
2021/07/24 15:42:58;;;;;;;0.00;0.00;;;;;;;;;;10343807;28;20058;-22
2021/07/24 15:48:02;;;;;;;0.20;0.00;;;;;;;;;;10344551;28;20046;-23
2021/07/24 15:53:05;;;;;;;0.00;0.00;;;;;;;;;;10357003;28;21432;-23
2021/07/24 15:58:07;;;;;;;0.00;0.00;;;;;;;;;;10347407;28;20074;-23
2021/07/24 16:03:11;;;;;;;0.00;0.00;;;;;;;;;;10350506;28;20055;-23
2021/07/24 16:08:14;;;;;;;0.00;0.00;;;;;;;;;;10353015;28;20057;-22
2021/07/24 16:13:17;;;;;;;0.00;0.00;;;;;;;;;;10352283;28;20052;-23
2021/07/24 16:18:21;;;;;;;0.20;0.00;;;;;;;;;;10357431;28;20056;-23
2021/07/24 16:23:23;;;;;;;0.00;0.00;;;;;;;;;;10365338;28;20046;-22
2021/07/24 16:28:26;;;;;;;0.00;0.00;;;;;;;;;;10350617;28;20038;-21
2021/07/24 16:33:31;;;;;;;0.00;0.00;;;;;;;;;;10352892;28;20080;-23
2021/07/24 16:38:35;;;;;;;0.63;0.00;;;;;;;;;;10347991;28;20073;-23
2021/07/24 16:43:40;;;;;;;0.00;0.00;;;;;;;;;;10344265;28;20056;-25
2021/07/24 16:48:44;;;;;;;0.00;0.00;;;;;;;;;;10336867;28;20067;-24
2021/07/24 16:53:47;;;;;;;0.00;0.00;;;;;;;;;;10346081;28;20038;-24
2021/07/24 16:58:50;;;;;;;0.00;0.00;;;;;;;;;;10341029;28;20117;-33
2021/07/24 17:03:54;;;;;;;0.00;0.00;;;;;;;;;;10345397;28;20369;-24
2021/07/24 17:08:59;;;;;;;0.00;0.00;;;;;;;;;;10344554;28;20580;-24
2021/07/24 17:14:02;;;;;;;0.00;0.00;;;;;;;;;;10342517;28;20073;-25
2021/07/24 17:19:06;;;;;;;0.00;0.00;;;;;;;;;;10360537;28;20171;-24
2021/07/24 17:24:09;;;;;;;0.10;0.00;;;;;;;;;;10339740;28;20491;-24
2021/07/24 17:29:14;;;;;;;0.00;0.00;;;;;;;;;;10343622;28;20042;-25
2021/07/24 17:34:18;;;;;;;0.00;0.00;;;;;;;;;;10349608;28;20046;-24
2021/07/24 17:39:21;;;;;;;0.30;0.00;;;;;;;;;;10348359;28;20041;-24
2021/07/24 17:44:23;;;;;;;0.20;0.00;;;;;;;;;;10348296;28;20133;-24
2021/07/24 17:49:27;;;;;;;0.00;0.00;;;;;;;;;;10341635;28;20048;-24
2021/07/24 17:54:31;;;;;;;0.00;0.00;;;;;;;;;;10339672;28;20041;-24
2021/07/24 17:59:34;;;;;;;0.00;0.00;;;;;;;;;;10342292;28;20052;-25
2021/07/24 18:04:39;;;;;;;0.00;0.00;;;;;;;;;;10323413;28;20043;-25
2021/07/24 18:09:42;;;;;;;0.00;0.00;;;;;;;;;;10315603;28;20054;-24
2021/07/24 18:14:46;;;;;;;0.10;0.00;;;;;;;;;;10317968;28;20286;-25
2021/07/24 18:19:50;;;;;;;0.00;0.00;;;;;;;;;;10330871;28;20062;-24
2021/07/24 18:24:52;;;;;;;0.00;0.00;;;;;;;;;;10326143;28;20038;-24
2021/07/24 18:29:55;;;;;;;0.00;0.00;;;;;;;;;;10320617;28;20054;-25
2021/07/24 18:34:59;;;;;;;0.00;0.00;;;;;;;;;;10319579;28;20050;-25
2021/07/24 18:40:02;;;;;;;0.00;0.00;;;;;;;;;;10315602;28;20042;-24
2021/07/24 18:45:06;;;;;;;0.00;0.00;;;;;;;;;;10319955;28;20042;-24
2021/07/24 18:50:11;;;;;;;0.00;0.00;;;;;;;;;;10318586;28;20050;-24
2021/07/24 18:55:14;;;;;;;0.10;0.00;;;;;;;;;;10318074;28;20121;-24
2021/07/24 19:00:17;;;;;;;0.22;0.00;;;;;;;;;;10313350;28;20042;-24
2021/07/24 19:05:23;;;;;;;0.10;0.00;;;;;;;;;;10320855;28;20060;-24
2021/07/24 19:10:26;;;;;;;0.10;0.00;;;;;;;;;;10321412;28;20049;-24
2021/07/24 19:15:29;;;;;;;0.00;0.00;;;;;;;;;;10319615;28;20499;-24
2021/07/24 19:20:34;;;;;;;0.00;0.00;;;;;;;;;;10323782;28;20042;-25
2021/07/24 19:25:37;;;;;;;0.00;0.00;;;;;;;;;;10330361;28;20488;-25
2021/07/24 19:30:40;;;;;;;0.00;0.00;;;;;;;;;;10328866;28;20051;-25
2021/07/24 19:35:45;;;;;;;0.35;0.00;;;;;;;;;;10326183;28;20049;-24
2021/07/24 19:40:49;;;;;;;0.00;0.00;;;;;;;;;;10333942;28;20046;-24
2021/07/24 19:45:51;;;;;;;0.00;0.00;;;;;;;;;;10337402;28;20045;-24
2021/07/24 19:50:56;;;;;;;0.15;0.05;;;;;;;;;;10330079;28;20463;-24
2021/07/24 19:55:58;;;;;;;0.00;0.00;;;;;;;;;;10335306;28;20062;-23
2021/07/24 20:01:01;;;;;;;0.00;0.00;;;;;;;;;;10344115;28;20054;-23
2021/07/24 20:06:06;;;;;;;0.00;0.00;;;;;;;;;;10330687;28;20042;-25
2021/07/24 20:11:09;;;;;;;0.00;0.00;;;;;;;;;;10327530;28;20058;-24
2021/07/24 20:16:11;;;;;;;0.00;0.00;;;;;;;;;;10338878;28;20138;-24
2021/07/24 20:21:16;;;;;;;0.20;0.10;;;;;;;;;;10334429;28;20043;-25
2021/07/24 20:26:20;;;;;;;0.20;0.00;;;;;;;;;;10320496;28;20046;-24
2021/07/24 20:31:23;;;;;;;0.13;0.05;;;;;;;;;;10316742;28;20065;-25
2021/07/24 20:36:27;;;;;;;0.00;0.00;;;;;;;;;;10318068;28;20801;-24
2021/07/24 20:41:30;;;;;;;0.00;0.00;;;;;;;;;;10317737;28;20500;-24
2021/07/24 20:46:33;;;;;;;0.00;0.00;;;;;;;;;;10322711;28;20049;-26
2021/07/24 20:51:38;;;;;;;0.00;0.00;;;;;;;;;;10320966;28;20054;-25
2021/07/24 20:56:41;;;;;;;0.00;0.00;;;;;;;;;;10317487;28;20426;-26
2021/07/24 21:01:45;;;;;;;0.00;0.00;;;;;;;;;;10326273;28;20057;-24
2021/07/24 21:06:49;;;;;;;0.00;0.00;;;;;;;;;;10323210;28;20046;-25
2021/07/24 21:11:52;;;;;;;0.00;0.00;;;;;;;;;;10324831;28;20096;-24
2021/07/24 21:16:55;;;;;;;0.00;0.00;;;;;;;;;;10322172;28;20043;-27
2021/07/24 21:22:00;;;;;;;0.00;0.00;;;;;;;;;;10326678;28;20054;-25
2021/07/24 21:27:03;;;;;;;0.00;0.00;;;;;;;;;;10328743;28;20058;-25
2021/07/24 21:32:06;;;;;;;0.08;0.00;;;;;;;;;;10322937;28;20042;-25
2021/07/24 21:37:15;;;;;;;0.00;0.00;;;;;;;;;;10327509;28;20045;-25
2021/07/24 21:42:19;;;;;;;0.15;0.00;;;;;;;;;;10321798;28;20123;-26
2021/07/24 21:47:22;;;;;;;0.10;0.10;;;;;;;;;;10323679;28;20048;-26
2021/07/24 21:52:26;;;;;;;0.00;0.00;;;;;;;;;;10326295;28;20385;-25
2021/07/24 21:57:29;;;;;;;0.00;0.00;;;;;;;;;;10329942;28;20845;-24
2021/07/24 22:02:34;;;;;;;0.00;0.00;;;;;;;;;;10329931;28;20046;-25
2021/07/24 22:07:38;;;;;;;0.00;0.00;;;;;;;;;;10324827;28;20053;-25
2021/07/24 22:12:41;;;;;;;0.00;0.00;;;;;;;;;;10328388;28;20046;-26
2021/07/24 22:17:44;;;;;;;0.03;0.03;;;;;;;;;;10330399;28;20042;-25
2021/07/24 22:22:48;;;;;;;0.00;0.00;;;;;;;;;;10328456;28;20050;-24
2021/07/24 22:27:51;;;;;;;0.00;0.00;;;;;;;;;;10329795;28;20049;-27
2021/07/24 22:32:55;;;;;;;0.10;0.00;;;;;;;;;;10330593;28;20066;-25
2021/07/24 22:37:59;;;;;;;0.15;0.00;;;;;;;;;;10333744;28;20045;-24
2021/07/24 22:43:02;;;;;;;0.00;0.00;;;;;;;;;;10331608;28;20518;-26
2021/07/24 22:48:07;;;;;;;0.00;0.00;;;;;;;;;;10340825;28;20502;-25
2021/07/24 22:53:11;;;;;;;0.00;0.00;;;;;;;;;;10333481;28;20050;-26
2021/07/24 22:58:14;;;;;;;0.00;0.00;;;;;;;;;;10333537;28;20051;-24
2021/07/24 23:03:16;;;;;;;0.00;0.00;;;;;;;;;;10321770;28;20503;-26
2021/07/24 23:08:21;;;;;;;0.00;0.00;;;;;;;;;;10322286;28;20444;-26
2021/07/24 23:13:24;;;;;;;0.10;0.10;;;;;;;;;;10321485;28;20050;-24
2021/07/24 23:18:27;;;;;;;0.00;0.00;;;;;;;;;;10323269;28;20049;-26
2021/07/24 23:23:31;;;;;;;0.00;0.00;;;;;;;;;;10327311;28;20066;-26
2021/07/24 23:28:34;;;;;;;0.00;0.00;;;;;;;;;;10326964;28;20050;-25
2021/07/24 23:33:38;;;;;;;0.00;0.00;;;;;;;;;;10323362;28;20082;-25
2021/07/24 23:38:45;;;;;;;0.00;0.00;;;;;;;;;;10328228;28;20065;-24
2021/07/24 23:43:47;;;;;;;0.00;0.00;;;;;;;;;;10328694;28;20178;-25
2021/07/24 23:48:50;;;;;;;0.00;0.00;;;;;;;;;;10324037;28;20049;-24
2021/07/24 23:53:54;;;;;;;0.00;0.00;;;;;;;;;;10329575;28;20049;-27
2021/07/24 23:58:57;;;;;;;0.10;0.00;;;;;;;;;;10330046;28;20030;-25
